Time;durP1;ratioP1;P1;durP2;ratioP2;P2;SDS_P1;SDS_P2;PMS_P1;PMS_P2;Temp;Humidity;BMP_temperature;BMP_pressure;BME280_temperature;BME280_humidity;BME280_pressure;Samples;Min_cycle;Max_cycle;Signal;HPM_P1;HPM_P2
2023/01/12 00:02:17;;;;;;;8.52;2.70;;;8.80;99.90;;;;;;5073728;28;20120;-77
2023/01/12 00:04:43;;;;;;;8.57;2.70;;;8.70;99.90;;;;;;5073862;28;20041;-76
2023/01/12 00:07:11;;;;;;;10.45;3.08;;;8.70;99.90;;;;;;5073666;28;20480;-76
2023/01/12 00:09:36;;;;;;;9.45;3.97;;;8.80;99.90;;;;;;5055768;28;20044;-75
2023/01/12 00:12:08;;;;;;;6.22;3.33;;;8.70;99.90;;;;;;5055870;28;20036;-76
2023/01/12 00:14:35;;;;;;;9.55;3.70;;;8.70;99.90;;;;;;5073909;28;20082;-77
2023/01/12 00:17:01;;;;;;;7.80;4.40;;;8.70;99.90;;;;;;5074026;28;20040;-76
2023/01/12 00:19:27;;;;;;;10.00;3.58;;;8.80;99.90;;;;;;5039517;28;20045;-77
2023/01/12 00:21:59;;;;;;;10.32;3.60;;;8.80;99.90;;;;;;5074837;28;20098;-77
2023/01/12 00:24:36;;;;;;;13.13;4.03;;;8.80;99.90;;;;;;5074417;28;20369;-76
2023/01/12 00:27:06;;;;;;;8.52;4.35;;;8.80;99.90;;;;;;5073416;28;20465;-77
2023/01/12 00:29:32;;;;;;;9.70;3.88;;;8.90;99.90;;;;;;5084430;28;20470;-77
2023/01/12 00:31:59;;;;;;;7.53;3.75;;;8.90;99.90;;;;;;5058702;28;20047;-76
2023/01/12 00:34:25;;;;;;;13.75;5.72;;;9.00;99.90;;;;;;5073233;28;20123;-76
2023/01/12 00:36:51;;;;;;;9.15;4.35;;;9.00;99.90;;;;;;5072979;28;20466;-77
2023/01/12 00:39:17;;;;;;;13.35;4.55;;;8.90;99.90;;;;;;5073315;28;20063;-77
2023/01/12 00:47:13;;;;;;;15.57;4.93;;;8.80;99.90;;;;;;5073731;28;20135;-76
2023/01/12 00:49:40;;;;;;;10.70;4.30;;;8.80;99.90;;;;;;5073084;28;20056;-76
2023/01/12 00:52:08;;;;;;;12.77;3.63;;;8.80;99.90;;;;;;5073017;28;20079;-76
2023/01/12 00:54:34;;;;;;;12.45;5.22;;;8.70;99.90;;;;;;5073241;28;20124;-76
2023/01/12 00:57:01;;;;;;;9.68;4.68;;;8.70;99.90;;;;;;5073320;28;20047;-76
2023/01/12 00:59:27;;;;;;;10.15;3.65;;;8.70;99.90;;;;;;5077065;28;20119;-76
2023/01/12 01:01:53;;;;;;;7.68;3.40;;;8.70;99.90;;;;;;5077205;28;20040;-77
2023/01/12 01:04:19;;;;;;;7.07;3.45;;;8.80;99.90;;;;;;5058824;28;20397;-78
2023/01/12 01:06:45;;;;;;;7.80;3.40;;;8.80;99.90;;;;;;5076972;28;20037;-76
2023/01/12 01:09:11;;;;;;;6.13;2.63;;;8.80;99.90;;;;;;5076837;28;20055;-77
2023/01/12 01:11:37;;;;;;;12.57;3.63;;;8.70;99.90;;;;;;5058665;28;20036;-77
2023/01/12 01:14:03;;;;;;;14.73;3.40;;;8.70;99.90;;;;;;5076608;28;20036;-76
2023/01/12 01:16:29;;;;;;;7.80;3.28;;;8.60;99.90;;;;;;5076381;28;20039;-75
2023/01/12 01:18:55;;;;;;;12.82;3.20;;;8.60;99.90;;;;;;5061777;28;20511;-76
2023/01/12 01:21:21;;;;;;;8.00;4.35;;;8.60;99.90;;;;;;5079669;28;20480;-76
2023/01/12 01:23:47;;;;;;;15.25;3.78;;;8.50;99.90;;;;;;5075102;28;20047;-77
2023/01/12 01:26:16;;;;;;;9.18;3.92;;;8.60;99.90;;;;;;5076802;28;20040;-76
2023/01/12 01:28:42;;;;;;;7.97;3.53;;;8.60;99.90;;;;;;5075470;28;20048;-76
2023/01/12 01:31:11;;;;;;;8.52;4.00;;;8.60;99.90;;;;;;5076169;28;20123;-76
2023/01/12 01:33:39;;;;;;;16.60;4.63;;;8.60;99.90;;;;;;5075063;28;20041;-75
2023/01/12 01:36:05;;;;;;;16.55;4.60;;;8.70;99.90;;;;;;5076228;28;20047;-76
2023/01/12 01:38:31;;;;;;;17.30;4.15;;;8.60;99.90;;;;;;5076624;28;20098;-75
2023/01/12 01:40:57;;;;;;;10.98;3.53;;;8.70;99.90;;;;;;5076679;28;20040;-75
2023/01/12 01:43:25;;;;;;;9.27;3.75;;;8.70;99.90;;;;;;5075952;28;20047;-75
2023/01/12 01:46:23;;;;;;;10.27;3.75;;;8.70;99.90;;;;;;5058066;28;20393;-75
2023/01/12 01:48:48;;;;;;;8.45;3.60;;;8.70;99.90;;;;;;5076611;28;20053;-75
2023/01/12 01:51:15;;;;;;;15.02;4.97;;;8.70;99.90;;;;;;5075756;28;20376;-75
2023/01/12 01:53:44;;;;;;;14.00;4.75;;;8.80;99.90;;;;;;5075660;28;20051;-75
2023/01/12 01:56:24;;;;;;;10.45;3.40;;;8.80;99.90;;;;;;5057949;28;20043;-76
2023/01/12 01:58:59;;;;;;;8.23;3.60;;;8.80;99.90;;;;;;5075703;28;20044;-75
2023/01/12 02:01:25;;;;;;;10.35;3.20;;;8.80;99.90;;;;;;5075689;28;20060;-73
2023/01/12 02:03:53;;;;;;;9.52;2.88;;;8.80;99.90;;;;;;5075567;28;20493;-73
2023/01/12 02:06:22;;;;;;;12.98;3.70;;;8.80;99.90;;;;;;5075558;28;20117;-74
2023/01/12 02:09:02;;;;;;;13.45;4.18;;;8.70;99.90;;;;;;5075997;28;20063;-73
2023/01/12 02:17:15;;;;;;;12.60;4.93;;;8.70;99.90;;;;;;5075134;28;20132;-74
2023/01/12 02:19:56;;;;;;;8.98;3.92;;;8.70;99.90;;;;;;5057702;28;20074;-75
2023/01/12 02:22:27;;;;;;;11.98;4.90;;;8.70;99.90;;;;;;5075109;28;20044;-75
2023/01/12 02:25:16;;;;;;;9.68;3.80;;;8.70;99.90;;;;;;5075983;28;20048;-75
2023/01/12 02:28:07;;;;;;;9.88;4.90;;;8.80;99.90;;;;;;5075841;28;20055;-75
2023/01/12 02:31:14;;;;;;;11.07;4.00;;;8.90;99.90;;;;;;5074927;28;20129;-74
2023/01/12 02:34:19;;;;;;;9.02;4.38;;;8.90;99.90;;;;;;5063968;28;20057;-75
2023/01/12 02:37:04;;;;;;;8.63;4.32;;;8.90;99.90;;;;;;5085245;28;20127;-74
2023/01/12 02:39:49;;;;;;;17.15;4.30;;;8.90;99.90;;;;;;5081673;28;20044;-75
2023/01/12 02:45:07;;;;;;;7.78;3.95;;;8.90;99.90;;;;;;5075384;28;20066;-74
2023/01/12 02:47:47;;;;;;;10.18;4.22;;;8.80;99.90;;;;;;5077037;28;20109;-75
2023/01/12 02:50:39;;;;;;;13.98;3.88;;;8.90;99.90;;;;;;5057308;28;20110;-74
2023/01/12 02:53:28;;;;;;;12.30;4.65;;;8.80;99.90;;;;;;5074040;28;20055;-74
2023/01/12 02:55:55;;;;;;;10.65;4.55;;;8.80;99.90;;;;;;5034928;28;20083;-73
2023/01/12 02:58:23;;;;;;;13.30;4.43;;;8.80;99.90;;;;;;5074252;28;20098;-73
2023/01/12 03:00:53;;;;;;;9.23;3.75;;;8.80;99.90;;;;;;5074259;28;20040;-73
2023/01/12 03:03:20;;;;;;;10.32;5.28;;;8.80;99.90;;;;;;5074324;28;20044;-73
2023/01/12 03:05:46;;;;;;;13.02;5.00;;;8.80;99.90;;;;;;5074238;28;20385;-74
2023/01/12 03:08:22;;;;;;;10.10;4.68;;;8.80;99.90;;;;;;5074354;28;20051;-73
2023/01/12 03:10:56;;;;;;;13.57;4.28;;;8.80;99.90;;;;;;5074314;28;20080;-73
2023/01/12 03:13:24;;;;;;;11.65;3.60;;;8.80;99.90;;;;;;5073948;28;20123;-74
2023/01/12 03:15:53;;;;;;;12.45;4.20;;;8.80;99.90;;;;;;5074330;28;20096;-73
2023/01/12 03:18:40;;;;;;;20.70;5.10;;;8.90;99.90;;;;;;5074503;28;20044;-73
2023/01/12 03:21:15;;;;;;;13.30;4.68;;;8.90;99.90;;;;;;5073413;28;20045;-72
2023/01/12 03:23:46;;;;;;;12.13;5.78;;;8.90;99.90;;;;;;5074067;28;20131;-72
2023/01/12 03:26:14;;;;;;;6.35;4.28;;;8.90;99.90;;;;;;5074538;28;20076;-72
2023/01/12 03:28:44;;;;;;;20.88;5.60;;;8.90;99.90;;;;;;5074025;28;20047;-73
2023/01/12 03:31:12;;;;;;;13.20;4.30;;;8.90;99.90;;;;;;5074907;28;20040;-73
2023/01/12 03:33:39;;;;;;;12.35;4.55;;;8.90;99.90;;;;;;5073873;28;20048;-73
2023/01/12 03:36:19;;;;;;;9.75;4.30;;;8.90;99.90;;;;;;5073440;28;20459;-73
2023/01/12 03:38:54;;;;;;;10.95;5.10;;;8.90;99.90;;;;;;5074619;28;20052;-73
2023/01/12 03:41:29;;;;;;;12.38;4.07;;;8.90;99.90;;;;;;5073821;28;20044;-73
2023/01/12 03:44:00;;;;;;;13.88;4.82;;;9.00;99.90;;;;;;5074783;28;20067;-73
2023/01/12 03:46:35;;;;;;;8.50;3.70;;;9.00;99.90;;;;;;5055812;28;20040;-73
2023/01/12 03:49:04;;;;;;;10.80;3.60;;;9.00;99.90;;;;;;5073895;28;20048;-73
2023/01/12 03:51:34;;;;;;;9.13;3.95;;;9.00;99.90;;;;;;5073534;28;20048;-73
2023/01/12 03:54:01;;;;;;;13.45;3.92;;;9.00;99.90;;;;;;5073363;28;20385;-73
2023/01/12 03:56:32;;;;;;;8.70;4.20;;;9.10;99.90;;;;;;5073538;28;20503;-72
2023/01/12 03:58:58;;;;;;;10.35;3.83;;;9.10;99.90;;;;;;5073604;28;20088;-72
2023/01/12 04:01:24;;;;;;;12.07;3.78;;;9.10;99.90;;;;;;5055935;28;20123;-72
2023/01/12 04:03:49;;;;;;;10.85;3.53;;;9.10;99.90;;;;;;5073630;28;20084;-72
2023/01/12 04:06:15;;;;;;;9.43;4.28;;;9.10;99.90;;;;;;5055847;28;20040;-72
2023/01/12 04:08:41;;;;;;;6.43;3.70;;;9.10;99.90;;;;;;5073566;28;20123;-72
2023/01/12 04:13:51;;;;;;;7.72;3.15;;;9.10;99.90;;;;;;5074244;28;20436;-72
2023/01/12 04:16:18;;;;;;;6.97;3.95;;;9.10;99.90;;;;;;5073552;28;20454;-71
2023/01/12 04:18:43;;;;;;;10.13;3.53;;;9.00;99.90;;;;;;5055626;28;20526;-72
2023/01/12 04:22:41;;;;;;;5.55;3.17;;;9.00;99.90;;;;;;5073321;28;20049;-72
2023/01/12 04:23:55;;;;;;;7.03;3.00;;;9.00;99.90;;;;;;5073035;28;20051;-72
2023/01/12 04:26:21;;;;;;;6.97;2.60;;;9.00;99.90;;;;;;5056446;28;20048;-72
2023/01/12 04:28:47;;;;;;;8.93;2.85;;;9.00;99.90;;;;;;5073259;28;20041;-73
2023/01/12 04:31:12;;;;;;;5.95;3.10;;;9.00;99.90;;;;;;5055986;28;20055;-73
2023/01/12 04:33:38;;;;;;;7.35;3.78;;;9.00;99.90;;;;;;5077012;28;20157;-72
2023/01/12 04:36:04;;;;;;;9.07;3.47;;;9.00;99.90;;;;;;5078395;28;20040;-72
2023/01/12 04:38:30;;;;;;;9.70;3.65;;;9.00;99.90;;;;;;5077787;28;20044;-72
2023/01/12 04:40:55;;;;;;;10.88;2.97;;;9.10;99.90;;;;;;5076914;28;20492;-72
2023/01/12 04:43:21;;;;;;;6.40;3.00;;;9.10;99.90;;;;;;5076879;28;20033;-70
2023/01/12 04:45:47;;;;;;;4.28;2.90;;;9.10;99.90;;;;;;5042283;28;20051;-71
2023/01/12 04:48:15;;;;;;;7.82;3.05;;;9.10;99.90;;;;;;5077061;28;20083;-72
2023/01/12 04:50:41;;;;;;;5.20;2.72;;;9.00;99.90;;;;;;5076683;28;20056;-72
2023/01/12 04:53:09;;;;;;;12.32;2.55;;;9.00;99.90;;;;;;5058853;28;20032;-71
2023/01/12 04:55:36;;;;;;;4.55;2.97;;;9.00;99.90;;;;;;5076573;28;20048;-71
2023/01/12 04:58:02;;;;;;;4.25;2.40;;;9.00;99.90;;;;;;5077027;28;20050;-70
2023/01/12 05:00:28;;;;;;;4.68;2.33;;;9.00;99.90;;;;;;5076717;28;20036;-69
2023/01/12 05:02:58;;;;;;;3.17;1.77;;;9.00;99.90;;;;;;5083410;28;20037;-69
2023/01/12 05:05:24;;;;;;;3.45;2.22;;;9.00;99.90;;;;;;5087045;28;20044;-69
2023/01/12 05:10:34;;;;;;;3.33;1.80;;;8.90;99.90;;;;;;5076608;28;20112;-71
2023/01/12 05:13:00;;;;;;;3.25;2.00;;;8.90;99.90;;;;;;5076230;28;20080;-71
2023/01/12 05:15:25;;;;;;;3.80;1.55;;;8.90;99.90;;;;;;5076257;28;20062;-71
2023/01/12 05:17:53;;;;;;;4.78;1.83;;;8.90;99.90;;;;;;5076228;28;20433;-71
2023/01/12 05:20:19;;;;;;;3.75;2.35;;;8.90;99.90;;;;;;5068221;28;20044;-70
2023/01/12 05:22:47;;;;;;;4.47;1.25;;;8.90;99.90;;;;;;5066742;28;20072;-71
2023/01/12 05:25:13;;;;;;;6.25;2.13;;;8.90;99.90;;;;;;5076171;28;20473;-71
2023/01/12 05:27:39;;;;;;;2.70;1.73;;;8.90;99.90;;;;;;5059038;28;20048;-70
2023/01/12 05:30:05;;;;;;;2.53;2.00;;;8.90;99.90;;;;;;5058302;28;20044;-70
2023/01/12 05:32:36;;;;;;;3.88;1.88;;;8.80;99.90;;;;;;5075845;28;20044;-70
2023/01/12 05:35:03;;;;;;;4.18;1.58;;;8.80;99.90;;;;;;5076225;28;20427;-71
2023/01/12 05:37:28;;;;;;;4.28;1.52;;;8.80;99.90;;;;;;5076658;28;20049;-71
2023/01/12 05:39:54;;;;;;;3.40;1.50;;;8.80;99.90;;;;;;5075787;28;20037;-72
2023/01/12 05:45:05;;;;;;;2.13;1.23;;;8.80;99.90;;;;;;5061131;28;20056;-72
2023/01/12 05:47:31;;;;;;;4.15;1.65;;;8.70;99.90;;;;;;5075499;28;20489;-71
2023/01/12 05:49:57;;;;;;;2.72;1.23;;;8.70;99.90;;;;;;5057855;28;20090;-71
2023/01/12 05:52:22;;;;;;;4.32;1.65;;;8.70;99.90;;;;;;5075298;28;20048;-71
2023/01/12 05:54:48;;;;;;;3.45;1.58;;;8.70;99.90;;;;;;5075592;28;20051;-72
2023/01/12 05:57:14;;;;;;;2.78;1.40;;;8.70;99.90;;;;;;5075876;28;20481;-71
2023/01/12 05:59:39;;;;;;;4.68;2.72;;;8.70;99.90;;;;;;5075437;28;20470;-71
2023/01/12 06:02:05;;;;;;;2.28;1.30;;;8.70;99.90;;;;;;5075963;28;20044;-71
2023/01/12 06:04:31;;;;;;;2.42;1.50;;;8.70;99.90;;;;;;5075866;28;20485;-71
2023/01/12 06:06:56;;;;;;;1.83;1.33;;;8.70;99.90;;;;;;5075276;28;20473;-71
2023/01/12 06:09:22;;;;;;;1.27;1.17;;;8.70;99.90;;;;;;5075819;28;20040;-71
2023/01/12 06:14:36;;;;;;;1.67;1.30;;;8.70;99.90;;;;;;5036922;28;20052;-71
2023/01/12 06:17:02;;;;;;;4.07;1.25;;;8.70;99.90;;;;;;5074928;28;20047;-71
2023/01/12 06:19:28;;;;;;;3.00;1.33;;;8.70;99.90;;;;;;5074920;28;20085;-71
2023/01/12 06:21:54;;;;;;;2.67;1.45;;;8.70;99.90;;;;;;5075996;28;20036;-71
2023/01/12 06:24:20;;;;;;;5.00;1.30;;;8.80;99.90;;;;;;5074732;28;20397;-70
2023/01/12 06:26:46;;;;;;;3.22;1.00;;;8.80;99.90;;;;;;5074895;28;20044;-70
2023/01/12 06:29:12;;;;;;;6.40;1.33;;;8.80;99.90;;;;;;5074887;28;20045;-71
2023/01/12 06:31:38;;;;;;;1.55;0.70;;;8.90;99.90;;;;;;5075450;28;20083;-71
2023/01/12 06:34:06;;;;;;;2.28;1.38;;;8.90;99.90;;;;;;5074817;28;20044;-70
2023/01/12 06:36:32;;;;;;;1.45;0.98;;;8.90;99.90;;;;;;5074547;28;20060;-70
2023/01/12 06:38:58;;;;;;;3.03;1.02;;;9.00;99.90;;;;;;5075696;28;20048;-70
2023/01/12 06:44:07;;;;;;;1.33;0.95;;;9.00;99.90;;;;;;5075063;28;20044;-70
2023/01/12 06:46:33;;;;;;;4.25;0.85;;;9.10;99.90;;;;;;5074560;28;20040;-69
2023/01/12 06:48:59;;;;;;;0.63;0.63;;;9.10;99.90;;;;;;5074674;28;20051;-71
2023/01/12 06:51:25;;;;;;;0.77;0.70;;;9.10;99.90;;;;;;5074829;28;20043;-70
2023/01/12 06:53:51;;;;;;;2.15;0.95;;;9.10;99.90;;;;;;5074494;28;20431;-71
2023/01/12 06:56:17;;;;;;;1.95;0.85;;;9.20;99.90;;;;;;5072144;28;20044;-71
2023/01/12 06:58:42;;;;;;;0.60;0.60;;;9.20;99.90;;;;;;5074247;28;20045;-70
2023/01/12 07:01:08;;;;;;;0.60;0.60;;;9.20;99.90;;;;;;5074306;28;20036;-72
2023/01/12 07:03:34;;;;;;;0.60;0.60;;;9.30;99.90;;;;;;5057613;28;20044;-72
2023/01/12 07:06:00;;;;;;;0.60;0.60;;;9.30;99.90;;;;;;5057309;28;20040;-72
2023/01/12 07:08:26;;;;;;;0.68;0.65;;;9.30;99.90;;;;;;5074312;28;20036;-73
2023/01/12 07:10:52;;;;;;;0.52;0.52;;;9.40;99.90;;;;;;5074135;28;20037;-73
2023/01/12 07:13:18;;;;;;;0.95;0.60;;;9.40;99.90;;;;;;5073847;28;20085;-72
2023/01/12 07:15:43;;;;;;;3.50;0.77;;;9.40;99.90;;;;;;5074019;28;20041;-72
2023/01/12 07:18:09;;;;;;;0.63;0.63;;;9.40;99.90;;;;;;5056092;28;20040;-73
2023/01/12 07:20:35;;;;;;;0.60;0.60;;;9.40;99.90;;;;;;5073652;28;20042;-73
2023/01/12 07:23:00;;;;;;;0.55;0.55;;;9.50;99.90;;;;;;5073936;28;20132;-73
2023/01/12 07:25:26;;;;;;;1.48;0.70;;;9.50;99.90;;;;;;5073872;28;20101;-72
2023/01/12 07:27:55;;;;;;;0.88;0.70;;;9.50;99.90;;;;;;5073808;28;20044;-72
2023/01/12 07:30:22;;;;;;;0.85;0.80;;;9.50;99.90;;;;;;5073786;28;20106;-72
2023/01/12 07:32:48;;;;;;;0.93;0.85;;;9.60;99.90;;;;;;5074230;28;20059;-71
2023/01/12 07:35:14;;;;;;;1.60;1.08;;;9.60;99.90;;;;;;5074206;28;20044;-72
2023/01/12 07:37:49;;;;;;;2.22;1.67;;;9.60;99.90;;;;;;5084152;28;20064;-71
2023/01/12 07:40:15;;;;;;;0.63;0.60;;;9.70;99.90;;;;;;5075843;28;20051;-71
2023/01/12 07:42:41;;;;;;;1.48;1.00;;;9.70;99.90;;;;;;5073433;28;20123;-71
2023/01/12 07:45:07;;;;;;;1.45;0.88;;;9.70;99.90;;;;;;5073355;28;20079;-72
2023/01/12 07:47:33;;;;;;;0.80;0.80;;;9.70;99.90;;;;;;5073306;28;20516;-71
2023/01/12 07:49:58;;;;;;;2.65;0.98;;;9.70;99.90;;;;;;5073513;28;20083;-71
2023/01/12 07:52:24;;;;;;;1.13;1.08;;;9.70;99.90;;;;;;5073532;28;20481;-71
2023/01/12 07:54:50;;;;;;;2.20;1.05;;;9.80;99.90;;;;;;5074166;28;20131;-72
2023/01/12 07:57:15;;;;;;;3.55;1.15;;;9.80;99.90;;;;;;5073368;28;20129;-72
2023/01/12 07:59:41;;;;;;;3.40;1.33;;;9.80;99.90;;;;;;5073433;28;20050;-72
2023/01/12 08:02:15;;;;;;;3.05;1.50;;;9.90;99.90;;;;;;5074321;28;20151;-71
2023/01/12 08:04:44;;;;;;;6.43;1.15;;;9.90;99.90;;;;;;5073635;28;20041;-72
2023/01/12 08:07:11;;;;;;;4.05;2.17;;;10.00;99.90;;;;;;5075241;28;20493;-71
2023/01/12 08:09:36;;;;;;;8.30;1.95;;;10.00;99.90;;;;;;5059556;28;20044;-71
2023/01/12 08:12:02;;;;;;;12.95;4.00;;;10.10;99.90;;;;;;5059613;28;20040;-71
2023/01/12 08:14:35;;;;;;;4.03;1.92;;;10.10;99.90;;;;;;5077674;28;20036;-72
2023/01/12 08:17:02;;;;;;;;;;;10.20;99.90;;;;;;5077562;28;20500;-72
2023/01/12 08:19:37;;;;;;;4.82;2.55;;;10.30;99.90;;;;;;5077872;28;19916;-72
2023/01/12 08:22:07;;;;;;;12.45;4.45;;;10.40;99.90;;;;;;5077268;28;20465;-73
2023/01/12 08:24:40;;;;;;;7.72;3.30;;;10.50;99.90;;;;;;5077207;28;20040;-73
2023/01/12 08:27:08;;;;;;;9.40;4.63;;;10.50;99.90;;;;;;5077263;28;20048;-72
2023/01/12 08:29:44;;;;;;;12.98;4.25;;;10.60;99.90;;;;;;5077066;28;20044;-72
2023/01/12 08:32:12;;;;;;;15.10;4.38;;;10.60;99.90;;;;;;5077805;28;20044;-74
2023/01/12 08:34:40;;;;;;;7.05;4.50;;;10.70;99.90;;;;;;5059962;28;20097;-73
2023/01/12 08:37:10;;;;;;;12.85;4.28;;;10.70;99.90;;;;;;5076402;28;20431;-73
2023/01/12 08:39:36;;;;;;;6.53;3.38;;;10.70;99.90;;;;;;5059242;28;20128;-72
2023/01/12 08:42:02;;;;;;;22.10;4.47;;;10.80;99.90;;;;;;5076865;28;20119;-72
2023/01/12 08:44:37;;;;;;;13.35;3.72;;;10.80;99.90;;;;;;5076762;28;20048;-73
2023/01/12 08:47:17;;;;;;;7.63;4.20;;;10.80;99.90;;;;;;5059672;28;20425;-71
2023/01/12 08:49:44;;;;;;;8.95;3.45;;;10.90;99.90;;;;;;5076822;28;20080;-73
2023/01/12 08:52:10;;;;;;;12.05;3.78;;;10.90;99.90;;;;;;5076689;28;20052;-71
2023/01/12 08:54:36;;;;;;;9.30;3.60;;;10.90;99.90;;;;;;5076608;28;20040;-73
2023/01/12 08:57:01;;;;;;;11.27;3.78;;;10.90;99.90;;;;;;5076441;28;20041;-72
2023/01/12 08:59:27;;;;;;;11.18;3.63;;;10.90;99.90;;;;;;5082758;28;20044;-72
2023/01/12 09:01:53;;;;;;;9.95;4.28;;;10.90;99.90;;;;;;5087113;28;20040;-73
2023/01/12 09:04:18;;;;;;;9.32;3.88;;;11.00;99.90;;;;;;5058735;28;20033;-74
2023/01/12 09:06:44;;;;;;;12.70;4.00;;;10.90;99.90;;;;;;5058875;28;20047;-73
2023/01/12 09:09:13;;;;;;;10.38;3.35;;;11.00;99.90;;;;;;5076346;28;20079;-73
2023/01/12 09:11:41;;;;;;;14.80;4.15;;;11.00;99.90;;;;;;5075218;28;20089;-73
2023/01/12 09:14:07;;;;;;;11.43;3.92;;;11.00;99.90;;;;;;5076155;28;20052;-73
2023/01/12 09:16:33;;;;;;;10.52;4.50;;;11.00;99.90;;;;;;5076384;28;20127;-73
2023/01/12 09:18:59;;;;;;;7.47;3.63;;;11.00;99.90;;;;;;5042544;28;20449;-73
2023/01/12 09:21:27;;;;;;;8.35;4.80;;;11.10;99.90;;;;;;5080407;28;20047;-73
2023/01/12 09:23:53;;;;;;;11.43;3.95;;;11.10;99.90;;;;;;5076157;28;20060;-75
2023/01/12 09:26:22;;;;;;;9.65;3.70;;;11.10;99.90;;;;;;5076056;28;20087;-74
2023/01/12 09:28:48;;;;;;;9.88;3.25;;;11.20;99.90;;;;;;5076050;28;20115;-74
2023/01/12 09:31:16;;;;;;;15.75;3.55;;;11.20;99.90;;;;;;5076050;28;20049;-74
2023/01/12 09:33:42;;;;;;;8.95;3.17;;;11.20;99.90;;;;;;5075760;28;20082;-73
2023/01/12 09:36:16;;;;;;;8.38;3.88;;;11.20;99.90;;;;;;5075904;28;20082;-74
2023/01/12 09:38:44;;;;;;;16.30;4.00;;;11.20;99.90;;;;;;5075476;28;20048;-74
2023/01/12 09:47:04;;;;;;;11.48;3.58;;;11.30;99.90;;;;;;5076444;28;20056;-74
2023/01/12 09:49:34;;;;;;;8.38;3.90;;;11.30;99.90;;;;;;5075716;28;20072;-73
2023/01/12 09:52:12;;;;;;;9.65;4.57;;;11.40;99.90;;;;;;5075708;28;20047;-74
2023/01/12 09:54:38;;;;;;;8.73;3.42;;;11.40;99.90;;;;;;5058715;28;20177;-74
2023/01/12 09:57:18;;;;;;;9.50;5.00;;;11.40;99.90;;;;;;5075530;28;20119;-74
2023/01/12 09:59:53;;;;;;;4.20;2.33;;;11.40;99.90;;;;;;5075567;28;20047;-75
2023/01/12 10:02:19;;;;;;;9.20;3.40;;;11.40;99.90;;;;;;5060680;28;20366;-74
2023/01/12 10:04:48;;;;;;;10.52;4.00;;;11.40;99.90;;;;;;5077176;28;20070;-75
2023/01/12 10:07:17;;;;;;;8.45;3.80;;;11.50;99.90;;;;;;5075622;28;20044;-76
2023/01/12 10:09:43;;;;;;;8.23;3.08;;;11.50;99.90;;;;;;5075911;28;20040;-74
2023/01/12 10:12:40;;;;;;;12.95;4.38;;;11.50;99.90;;;;;;5058110;28;20040;-75
2023/01/12 10:15:23;;;;;;;12.63;3.55;;;11.50;99.90;;;;;;5075220;28;20103;-75
2023/01/12 10:18:00;;;;;;;14.10;4.18;;;11.50;99.90;;;;;;5076254;28;20122;-75
2023/01/12 10:20:32;;;;;;;10.02;3.78;;;11.60;99.90;;;;;;5075528;28;20045;-76
2023/01/12 10:23:10;;;;;;;13.00;4.40;;;11.60;99.90;;;;;;5075914;28;20045;-75
2023/01/12 10:25:40;;;;;;;10.73;3.88;;;11.60;99.90;;;;;;5074950;28;20076;-76
2023/01/12 10:28:11;;;;;;;12.40;3.45;;;11.60;99.90;;;;;;5075676;28;20145;-76
2023/01/12 10:30:39;;;;;;;15.98;3.15;;;11.60;99.90;;;;;;5075256;28;20487;-76
2023/01/12 10:33:17;;;;;;;10.73;3.47;;;11.70;99.90;;;;;;5075155;28;20062;-76
2023/01/12 10:35:57;;;;;;;10.18;3.35;;;11.70;99.90;;;;;;5075890;28;20492;-74
2023/01/12 10:38:37;;;;;;;9.43;2.83;;;11.80;99.90;;;;;;5074420;28;20045;-75
2023/01/12 10:41:16;;;;;;;9.25;3.17;;;11.80;99.90;;;;;;5074890;28;20110;-78
2023/01/12 10:43:43;;;;;;;7.57;3.42;;;11.70;99.90;;;;;;5074824;28;20048;-76
2023/01/12 10:46:17;;;;;;;7.53;2.85;;;11.80;99.90;;;;;;5074618;28;20076;-75
2023/01/12 10:48:45;;;;;;;10.45;2.40;;;11.70;99.90;;;;;;5056788;28;20102;-75
2023/01/12 10:51:27;;;;;;;9.38;3.65;;;11.70;99.90;;;;;;5074687;28;20116;-75
2023/01/12 10:54:17;;;;;;;6.50;2.30;;;11.70;99.90;;;;;;5074410;28;20043;-74
2023/01/12 10:56:52;;;;;;;6.25;2.65;;;11.70;99.90;;;;;;5075028;28;20044;-74
2023/01/12 10:59:20;;;;;;;7.28;3.30;;;11.70;99.90;;;;;;5074273;28;20143;-75
2023/01/12 11:01:51;;;;;;;6.88;2.25;;;11.80;99.90;;;;;;5074907;28;20040;-75
2023/01/12 11:04:22;;;;;;;6.97;2.75;;;11.80;99.90;;;;;;5074389;28;20048;-74
2023/01/12 11:07:17;;;;;;;6.68;3.63;;;11.80;99.90;;;;;;5073918;28;20473;-75
2023/01/12 11:09:44;;;;;;;7.10;2.25;;;11.80;99.90;;;;;;5054545;28;20052;-74
2023/01/12 11:12:37;;;;;;;10.07;2.63;;;11.70;99.90;;;;;;5073988;28;20091;-74
2023/01/12 11:15:15;;;;;;;5.72;2.70;;;11.80;99.90;;;;;;5074710;28;20076;-75
2023/01/12 11:18:02;;;;;;;6.28;3.65;;;11.80;99.90;;;;;;5074655;28;20123;-75
2023/01/12 11:20:38;;;;;;;7.47;2.83;;;11.80;99.90;;;;;;5074819;28;20040;-76
2023/01/12 11:23:11;;;;;;;6.75;3.25;;;11.90;99.90;;;;;;5073979;28;20170;-76
2023/01/12 11:25:46;;;;;;;22.70;4.75;;;11.90;99.90;;;;;;5074778;28;20044;-76
2023/01/12 11:28:26;;;;;;;9.05;2.50;;;12.00;99.90;;;;;;5056642;28;20370;-76
2023/01/12 11:31:16;;;;;;;7.80;2.83;;;12.00;99.90;;;;;;5073985;28;20048;-76
2023/01/12 11:34:17;;;;;;;15.63;3.47;;;12.00;99.90;;;;;;5074127;28;20087;-76
2023/01/12 11:36:52;;;;;;;13.38;3.33;;;12.00;99.90;;;;;;5074736;28;20119;-77
2023/01/12 11:39:22;;;;;;;4.53;2.50;;;12.00;99.90;;;;;;5056880;28;20362;-77
2023/01/12 11:44:50;;;;;;;12.60;3.60;;;12.10;99.90;;;;;;5074638;28;20071;-76
2023/01/12 11:47:22;;;;;;;8.85;2.60;;;12.10;99.90;;;;;;5073923;28;20043;-77
2023/01/12 11:50:12;;;;;;;11.90;3.25;;;12.10;99.90;;;;;;5072958;28;20052;-78
2023/01/12 11:52:38;;;;;;;4.75;2.58;;;12.10;99.90;;;;;;5074337;28;20079;-79
2023/01/12 11:55:04;;;;;;;11.48;2.67;;;12.20;99.90;;;;;;5073774;28;20048;-77
2023/01/12 11:57:40;;;;;;;9.25;2.83;;;12.30;99.90;;;;;;5072860;28;20047;-78
2023/01/12 12:00:24;;;;;;;6.68;2.78;;;12.30;99.90;;;;;;5073795;28;20049;-78
2023/01/12 12:03:17;;;;;;;5.82;2.20;;;12.40;99.90;;;;;;5039711;28;20048;-77
2023/01/12 12:05:51;;;;;;;10.25;3.30;;;12.40;99.90;;;;;;5073682;28;20040;-74
2023/01/12 12:08:22;;;;;;;8.90;3.00;;;12.40;99.90;;;;;;5073169;28;20103;-75
2023/01/12 12:11:09;;;;;;;9.63;2.75;;;12.40;99.90;;;;;;5073525;28;20048;-76
2023/01/12 12:13:42;;;;;;;10.68;3.10;;;12.40;99.90;;;;;;5073592;28;20037;-77
2023/01/12 12:16:41;;;;;;;7.05;2.70;;;12.40;99.90;;;;;;5073277;28;20037;-74
2023/01/12 12:19:22;;;;;;;10.75;3.28;;;12.40;99.90;;;;;;5054883;28;20044;-75
2023/01/12 12:22:06;;;;;;;6.30;2.40;;;12.40;99.90;;;;;;5073650;28;20055;-75
2023/01/12 12:24:57;;;;;;;10.50;2.58;;;12.30;99.90;;;;;;5073452;28;20041;-75
2023/01/12 12:28:11;;;;;;;8.70;3.22;;;12.30;99.90;;;;;;5056167;28;20044;-75
2023/01/12 12:30:52;;;;;;;;;;;12.30;99.90;;;;;;5073318;28;20036;-75
2023/01/12 12:33:43;;;;;;;6.70;4.07;;;12.20;99.90;;;;;;5074073;28;19916;-76
2023/01/12 12:36:31;;;;;;;7.05;3.20;;;12.20;99.90;;;;;;5074250;28;20047;-76
2023/01/12 12:39:12;;;;;;;8.50;3.05;;;12.20;99.90;;;;;;5073048;28;20051;-76
2023/01/12 12:45:16;;;;;;;4.93;2.17;;;12.20;99.90;;;;;;5073713;28;20045;-76
2023/01/12 12:47:45;;;;;;;6.15;2.42;;;12.10;99.90;;;;;;5064456;28;20045;-75
2023/01/12 12:50:23;;;;;;;9.23;2.40;;;12.10;99.90;;;;;;5055558;28;20478;-75
2023/01/12 12:53:02;;;;;;;8.00;2.75;;;12.10;99.90;;;;;;5074310;28;20033;-77
2023/01/12 12:55:29;;;;;;;6.25;2.75;;;12.10;99.90;;;;;;5076841;28;20531;-76
2023/01/12 12:58:01;;;;;;;6.57;2.97;;;12.10;99.90;;;;;;5059013;28;20500;-75
2023/01/12 13:00:39;;;;;;;8.50;3.88;;;12.10;99.90;;;;;;5058950;28;20045;-78
2023/01/12 13:03:05;;;;;;;10.48;3.00;;;12.10;99.90;;;;;;5077383;28;20043;-76
2023/01/12 13:05:46;;;;;;;7.38;2.40;;;12.10;99.90;;;;;;5076499;28;20493;-77
2023/01/12 13:08:31;;;;;;;10.52;3.28;;;12.10;99.90;;;;;;5058744;28;20040;-76
2023/01/12 13:10:58;;;;;;;5.75;2.75;;;12.10;99.90;;;;;;5076994;28;20040;-76
2023/01/12 13:13:30;;;;;;;9.63;3.95;;;12.10;99.90;;;;;;5076377;28;20462;-76
2023/01/12 13:16:14;;;;;;;6.65;2.80;;;12.10;99.90;;;;;;5076381;28;20036;-77
2023/01/12 13:19:00;;;;;;;8.70;2.97;;;12.00;99.90;;;;;;5076440;28;20044;-76
2023/01/12 13:21:26;;;;;;;7.40;3.20;;;12.10;99.90;;;;;;5062511;28;20137;-76
2023/01/12 13:24:10;;;;;;;8.68;3.22;;;12.10;99.90;;;;;;5059346;28;20072;-76
2023/01/12 13:26:38;;;;;;;3.83;2.85;;;12.10;99.90;;;;;;5075465;28;20059;-75
2023/01/12 13:29:22;;;;;;;10.45;3.38;;;12.10;99.90;;;;;;5076059;28;20040;-77
2023/01/12 13:31:48;;;;;;;9.40;3.45;;;12.10;99.90;;;;;;5076710;28;20055;-76
2023/01/12 13:34:35;;;;;;;12.73;3.72;;;12.10;99.90;;;;;;5078953;28;20055;-76
2023/01/12 13:37:28;;;;;;;7.03;4.05;;;12.10;99.90;;;;;;5076670;28;20040;-76
2023/01/12 13:40:06;;;;;;;11.27;3.83;;;12.10;99.90;;;;;;5076677;28;20087;-75
2023/01/12 13:45:19;;;;;;;10.23;3.33;;;12.10;99.90;;;;;;5076421;28;20373;-75
2023/01/12 13:47:48;;;;;;;9.77;3.53;;;12.10;99.90;;;;;;5076581;28;20040;-75
2023/01/12 13:50:21;;;;;;;9.88;3.97;;;12.10;99.90;;;;;;5058727;28;20079;-75
2023/01/12 13:52:58;;;;;;;13.85;4.28;;;12.10;99.90;;;;;;5075812;28;20039;-75
2023/01/12 13:55:27;;;;;;;10.07;3.20;;;12.10;99.90;;;;;;5074470;28;20047;-75